sensor_id;sensor_type;location;lat;lon;timestamp;pressure;altitude;pressure_sealevel;temperature;humidity
46782;BME280;32541;46.298;11.506;2024-02-14T00:00:34;89932.06;;;-0.53;65.50
46782;BME280;32541;46.298;11.506;2024-02-14T00:03:00;89934.28;;;-0.51;67.98
46782;BME280;32541;46.298;11.506;2024-02-14T00:05:25;89933.03;;;-0.50;68.14
46782;BME280;32541;46.298;11.506;2024-02-14T00:07:51;89929.66;;;-0.57;69.90
46782;BME280;32541;46.298;11.506;2024-02-14T00:10:16;89937.75;;;-0.62;68.81
46782;BME280;32541;46.298;11.506;2024-02-14T00:12:42;89941.44;;;-0.60;68.10
46782;BME280;32541;46.298;11.506;2024-02-14T00:15:08;89942.19;;;-0.65;68.12
46782;BME280;32541;46.298;11.506;2024-02-14T00:17:34;89940.97;;;-0.64;68.46
46782;BME280;32541;46.298;11.506;2024-02-14T00:20:03;89934.09;;;-0.65;69.36
46782;BME280;32541;46.298;11.506;2024-02-14T00:22:29;89936.81;;;-0.65;68.71
46782;BME280;32541;46.298;11.506;2024-02-14T00:24:56;89951.03;;;-0.64;68.60
46782;BME280;32541;46.298;11.506;2024-02-14T00:27:21;89944.88;;;-0.59;68.83
46782;BME280;32541;46.298;11.506;2024-02-14T00:29:46;89943.91;;;-0.62;68.67
46782;BME280;32541;46.298;11.506;2024-02-14T00:32:13;89943.16;;;-0.62;69.21
46782;BME280;32541;46.298;11.506;2024-02-14T00:34:38;89939.75;;;-0.68;69.10
46782;BME280;32541;46.298;11.506;2024-02-14T00:37:04;89949.13;;;-0.69;69.45
46782;BME280;32541;46.298;11.506;2024-02-14T00:39:29;89946.97;;;-0.41;67.69
46782;BME280;32541;46.298;11.506;2024-02-14T00:41:54;89942.16;;;-0.59;67.60
46782;BME280;32541;46.298;11.506;2024-02-14T00:44:21;89950.06;;;-0.67;68.09
46782;BME280;32541;46.298;11.506;2024-02-14T00:46:46;89944.94;;;-0.70;68.34
46782;BME280;32541;46.298;11.506;2024-02-14T00:49:13;89948.41;;;-0.75;70.85
46782;BME280;32541;46.298;11.506;2024-02-14T00:51:38;89956.25;;;-0.77;70.63
46782;BME280;32541;46.298;11.506;2024-02-14T00:54:05;89952.84;;;-0.78;69.86
46782;BME280;32541;46.298;11.506;2024-02-14T00:56:31;89950.09;;;-0.72;69.54
46782;BME280;32541;46.298;11.506;2024-02-14T00:58:56;89957.97;;;-0.74;69.75
46782;BME280;32541;46.298;11.506;2024-02-14T01:01:22;89949.63;;;-0.76;70.34
46782;BME280;32541;46.298;11.506;2024-02-14T01:03:47;89948.91;;;-0.77;70.28
46782;BME280;32541;46.298;11.506;2024-02-14T01:06:13;89959.44;;;-0.73;69.90
46782;BME280;32541;46.298;11.506;2024-02-14T01:08:39;89960.34;;;-0.60;67.64
46782;BME280;32541;46.298;11.506;2024-02-14T01:11:06;89960.38;;;-0.65;65.91
46782;BME280;32541;46.298;11.506;2024-02-14T01:13:32;89967.03;;;-0.72;68.38
46782;BME280;32541;46.298;11.506;2024-02-14T01:15:57;89967.28;;;-0.70;69.46
46782;BME280;32541;46.298;11.506;2024-02-14T01:18:22;89962.63;;;-0.69;71.84
46782;BME280;32541;46.298;11.506;2024-02-14T01:20:48;89971.72;;;-0.72;72.66
46782;BME280;32541;46.298;11.506;2024-02-14T01:23:13;89960.91;;;-0.72;71.79
46782;BME280;32541;46.298;11.506;2024-02-14T01:25:38;89962.56;;;-0.64;70.15
46782;BME280;32541;46.298;11.506;2024-02-14T01:28:04;89971.88;;;-0.59;70.08
46782;BME280;32541;46.298;11.506;2024-02-14T01:30:30;89966.97;;;-0.61;70.09
46782;BME280;32541;46.298;11.506;2024-02-14T01:32:55;89962.84;;;-0.67;71.84
46782;BME280;32541;46.298;11.506;2024-02-14T01:35:21;89959.91;;;-0.69;71.86
46782;BME280;32541;46.298;11.506;2024-02-14T01:37:46;89960.38;;;-0.65;70.62
46782;BME280;32541;46.298;11.506;2024-02-14T01:40:12;89961.84;;;-0.64;66.62
46782;BME280;32541;46.298;11.506;2024-02-14T01:42:37;89956.25;;;-0.72;67.56
46782;BME280;32541;46.298;11.506;2024-02-14T01:45:03;89961.91;;;-0.75;68.35
46782;BME280;32541;46.298;11.506;2024-02-14T01:47:29;89967.31;;;-0.75;69.68
46782;BME280;32541;46.298;11.506;2024-02-14T01:49:58;89969.31;;;-0.81;70.68
46782;BME280;32541;46.298;11.506;2024-02-14T01:52:24;89965.63;;;-0.84;71.00
46782;BME280;32541;46.298;11.506;2024-02-14T01:54:51;89966.38;;;-0.83;70.75
46782;BME280;32541;46.298;11.506;2024-02-14T01:57:17;89968.34;;;-0.84;69.70
46782;BME280;32541;46.298;11.506;2024-02-14T01:59:43;89958.97;;;-0.77;68.41
46782;BME280;32541;46.298;11.506;2024-02-14T02:02:09;89962.44;;;-0.82;69.20
46782;BME280;32541;46.298;11.506;2024-02-14T02:04:35;89966.63;;;-0.87;68.51
46782;BME280;32541;46.298;11.506;2024-02-14T02:07:01;89962.97;;;-0.89;68.61
46782;BME280;32541;46.298;11.506;2024-02-14T02:09:27;89966.63;;;-0.87;69.10
46782;BME280;32541;46.298;11.506;2024-02-14T02:11:52;89962.97;;;-0.89;68.88
46782;BME280;32541;46.298;11.506;2024-02-14T02:14:25;89953.41;;;-0.90;68.48
46782;BME280;32541;46.298;11.506;2024-02-14T02:16:51;89959.97;;;-0.80;67.56
46782;BME280;32541;46.298;11.506;2024-02-14T02:19:17;89958.28;;;-0.83;67.22
46782;BME280;32541;46.298;11.506;2024-02-14T02:21:42;89959.50;;;-0.84;68.74
46782;BME280;32541;46.298;11.506;2024-02-14T02:24:11;89956.34;;;-0.94;69.41
46782;BME280;32541;46.298;11.506;2024-02-14T02:26:36;89967.19;;;-1.05;67.70
46782;BME280;32541;46.298;11.506;2024-02-14T02:29:02;89968.38;;;-0.89;65.59
46782;BME280;32541;46.298;11.506;2024-02-14T02:31:27;89966.88;;;-0.90;65.49
46782;BME280;32541;46.298;11.506;2024-02-14T02:33:52;89957.81;;;-0.93;68.14
46782;BME280;32541;46.298;11.506;2024-02-14T02:36:18;89959.56;;;-0.95;68.82
46782;BME280;32541;46.298;11.506;2024-02-14T02:38:43;89960.56;;;-0.98;68.98
46782;BME280;32541;46.298;11.506;2024-02-14T02:41:09;89966.22;;;-1.02;68.69
46782;BME280;32541;46.298;11.506;2024-02-14T02:43:34;89971.84;;;-1.00;67.75
46782;BME280;32541;46.298;11.506;2024-02-14T02:46:01;89979.47;;;-1.04;67.45
46782;BME280;32541;46.298;11.506;2024-02-14T02:48:26;89979.41;;;-0.93;66.33
46782;BME280;32541;46.298;11.506;2024-02-14T02:50:52;89973.34;;;-1.04;66.60
46782;BME280;32541;46.298;11.506;2024-02-14T02:53:18;89982.66;;;-1.05;65.93
46782;BME280;32541;46.298;11.506;2024-02-14T02:55:43;89990.53;;;-1.07;66.55
46782;BME280;32541;46.298;11.506;2024-02-14T02:58:09;89985.41;;;-1.17;69.04
46782;BME280;32541;46.298;11.506;2024-02-14T03:00:35;89980.03;;;-1.22;68.70
46782;BME280;32541;46.298;11.506;2024-02-14T03:03:00;89991.31;;;-1.24;69.61
46782;BME280;32541;46.298;11.506;2024-02-14T03:05:27;89982.50;;;-1.30;70.91
46782;BME280;32541;46.298;11.506;2024-02-14T03:07:54;89982.50;;;-1.35;69.98
46782;BME280;32541;46.298;11.506;2024-02-14T03:10:22;89990.81;;;-1.22;68.53
46782;BME280;32541;46.298;11.506;2024-02-14T03:12:48;89988.88;;;-1.33;69.00
46782;BME280;32541;46.298;11.506;2024-02-14T03:15:14;89986.91;;;-1.27;68.75
46782;BME280;32541;46.298;11.506;2024-02-14T03:17:39;89990.59;;;-1.30;68.36
46782;BME280;32541;46.298;11.506;2024-02-14T03:20:06;89989.13;;;-1.31;67.69
46782;BME280;32541;46.298;11.506;2024-02-14T03:22:49;89986.66;;;-1.29;68.92
46782;BME280;32541;46.298;11.506;2024-02-14T03:25:19;89988.66;;;-1.35;69.04
46782;BME280;32541;46.298;11.506;2024-02-14T03:27:44;89993.81;;;-1.37;69.05
46782;BME280;32541;46.298;11.506;2024-02-14T03:30:16;89996.97;;;-1.38;68.95
46782;BME280;32541;46.298;11.506;2024-02-14T03:32:48;89997.47;;;-1.34;68.20
46782;BME280;32541;46.298;11.506;2024-02-14T03:35:13;90000.88;;;-1.28;67.86
46782;BME280;32541;46.298;11.506;2024-02-14T03:37:40;89992.31;;;-1.32;69.68
46782;BME280;32541;46.298;11.506;2024-02-14T03:40:07;89999.19;;;-1.31;70.93
46782;BME280;32541;46.298;11.506;2024-02-14T03:42:34;89998.44;;;-1.32;71.11
46782;BME280;32541;46.298;11.506;2024-02-14T03:44:59;89995.00;;;-1.27;70.41
46782;BME280;32541;46.298;11.506;2024-02-14T03:47:31;89993.25;;;-1.24;69.56
46782;BME280;32541;46.298;11.506;2024-02-14T03:49:58;89993.75;;;-1.26;71.19
46782;BME280;32541;46.298;11.506;2024-02-14T03:52:23;89988.59;;;-1.24;71.85
46782;BME280;32541;46.298;11.506;2024-02-14T03:54:48;89995.97;;;-1.24;71.49
46782;BME280;32541;46.298;11.506;2024-02-14T03:57:14;89998.41;;;-1.21;71.56
46782;BME280;32541;46.298;11.506;2024-02-14T03:59:40;89998.38;;;-1.15;70.37
46782;BME280;32541;46.298;11.506;2024-02-14T04:02:05;89999.81;;;-1.03;70.55
46782;BME280;32541;46.298;11.506;2024-02-14T04:04:36;90002.06;;;-1.13;69.11
46782;BME280;32541;46.298;11.506;2024-02-14T04:07:05;90004.28;;;-1.17;69.66
46782;BME280;32541;46.298;11.506;2024-02-14T04:09:32;90004.75;;;-1.13;68.25
46782;BME280;32541;46.298;11.506;2024-02-14T04:11:58;90006.97;;;-1.11;68.84
46782;BME280;32541;46.298;11.506;2024-02-14T04:14:23;89999.34;;;-1.07;71.26
46782;BME280;32541;46.298;11.506;2024-02-14T04:16:49;90003.75;;;-1.09;72.25
46782;BME280;32541;46.298;11.506;2024-02-14T04:19:14;90002.31;;;-1.10;71.96
46782;BME280;32541;46.298;11.506;2024-02-14T04:21:42;90006.22;;;-1.12;71.42
46782;BME280;32541;46.298;11.506;2024-02-14T04:24:07;90008.44;;;-1.16;71.75
46782;BME280;32541;46.298;11.506;2024-02-14T04:26:33;90008.69;;;-1.14;72.44
46782;BME280;32541;46.298;11.506;2024-02-14T04:28:59;90016.03;;;-1.08;74.01
46782;BME280;32541;46.298;11.506;2024-02-14T04:31:25;90012.59;;;-1.09;73.72
46782;BME280;32541;46.298;11.506;2024-02-14T04:33:52;90001.31;;;-1.07;73.29
46782;BME280;32541;46.298;11.506;2024-02-14T04:36:19;90001.53;;;-1.05;72.12
46782;BME280;32541;46.298;11.506;2024-02-14T04:38:46;89996.16;;;-1.05;72.06
46782;BME280;32541;46.298;11.506;2024-02-14T04:41:12;89993.97;;;-1.07;72.26
46782;BME280;32541;46.298;11.506;2024-02-14T04:43:38;90007.44;;;-1.07;70.55
46782;BME280;32541;46.298;11.506;2024-02-14T04:46:04;90000.09;;;-1.12;69.61
46782;BME280;32541;46.298;11.506;2024-02-14T04:48:32;89997.91;;;-1.14;70.75
46782;BME280;32541;46.298;11.506;2024-02-14T04:50:58;90001.84;;;-1.20;71.86
46782;BME280;32541;46.298;11.506;2024-02-14T04:53:23;89998.91;;;-1.22;71.57
46782;BME280;32541;46.298;11.506;2024-02-14T04:55:49;89998.16;;;-1.17;70.09
46782;BME280;32541;46.298;11.506;2024-02-14T04:58:14;89996.19;;;-1.17;68.87
46782;BME280;32541;46.298;11.506;2024-02-14T05:00:39;89992.53;;;-1.19;70.83
46782;BME280;32541;46.298;11.506;2024-02-14T05:03:05;89997.22;;;-1.31;72.35
46782;BME280;32541;46.298;11.506;2024-02-14T05:05:30;89990.59;;;-1.30;71.58
46782;BME280;32541;46.298;11.506;2024-02-14T05:07:58;89994.78;;;-1.34;70.24
46782;BME280;32541;46.298;11.506;2024-02-14T05:10:23;89996.97;;;-1.33;70.19
46782;BME280;32541;46.298;11.506;2024-02-14T05:12:49;89994.22;;;-1.22;68.86
46782;BME280;32541;46.298;11.506;2024-02-14T05:15:15;89996.44;;;-1.15;69.48
46782;BME280;32541;46.298;11.506;2024-02-14T05:17:42;89994.53;;;-1.31;69.88
46782;BME280;32541;46.298;11.506;2024-02-14T05:20:09;89990.34;;;-1.32;69.62
46782;BME280;32541;46.298;11.506;2024-02-14T05:22:38;89995.50;;;-1.28;69.10
46782;BME280;32541;46.298;11.506;2024-02-14T05:25:06;89990.34;;;-1.26;68.81
46782;BME280;32541;46.298;11.506;2024-02-14T05:27:34;89993.56;;;-1.39;69.14
46782;BME280;32541;46.298;11.506;2024-02-14T05:29:59;89990.88;;;-1.44;69.49
46782;BME280;32541;46.298;11.506;2024-02-14T05:32:25;89992.09;;;-1.51;68.44
46782;BME280;32541;46.298;11.506;2024-02-14T05:34:51;89999.97;;;-1.53;67.87
46782;BME280;32541;46.298;11.506;2024-02-14T05:37:16;89994.78;;;-1.45;68.35
46782;BME280;32541;46.298;11.506;2024-02-14T05:39:42;89988.41;;;-1.48;69.13
46782;BME280;32541;46.298;11.506;2024-02-14T05:42:07;89986.97;;;-1.49;68.78
46782;BME280;32541;46.298;11.506;2024-02-14T05:44:33;90000.41;;;-1.38;71.04
46782;BME280;32541;46.298;11.506;2024-02-14T05:46:58;89996.72;;;-1.29;72.67
46782;BME280;32541;46.298;11.506;2024-02-14T05:49:24;89995.25;;;-1.30;70.02
46782;BME280;32541;46.298;11.506;2024-02-14T05:51:50;90003.88;;;-1.43;68.17
46782;BME280;32541;46.298;11.506;2024-02-14T05:54:17;90009.25;;;-1.43;68.09
46782;BME280;32541;46.298;11.506;2024-02-14T05:56:43;90009.25;;;-1.48;68.30
46782;BME280;32541;46.298;11.506;2024-02-14T05:59:09;90014.41;;;-1.50;68.31
46782;BME280;32541;46.298;11.506;2024-02-14T06:01:35;90013.22;;;-1.55;68.92
46782;BME280;32541;46.298;11.506;2024-02-14T06:04:00;90009.28;;;-1.54;69.04
46782;BME280;32541;46.298;11.506;2024-02-14T06:06:26;90013.22;;;-1.55;69.99
46782;BME280;32541;46.298;11.506;2024-02-14T06:08:51;90012.97;;;-1.62;70.26
46782;BME280;32541;46.298;11.506;2024-02-14T06:11:16;90020.31;;;-1.63;69.89
46782;BME280;32541;46.298;11.506;2024-02-14T06:13:42;90030.34;;;-1.52;69.25
46782;BME280;32541;46.298;11.506;2024-02-14T06:16:07;90027.69;;;-1.58;70.14
46782;BME280;32541;46.298;11.506;2024-02-14T06:18:34;90033.81;;;-1.57;69.72
46782;BME280;32541;46.298;11.506;2024-02-14T06:21:00;90034.06;;;-1.61;69.68
46782;BME280;32541;46.298;11.506;2024-02-14T06:23:25;90036.47;;;-1.63;69.84
46782;BME280;32541;46.298;11.506;2024-02-14T06:25:50;90037.72;;;-1.64;69.90
46782;BME280;32541;46.298;11.506;2024-02-14T06:28:16;90051.19;;;-1.58;68.91
46782;BME280;32541;46.298;11.506;2024-02-14T06:30:41;90034.03;;;-1.44;72.86
46782;BME280;32541;46.298;11.506;2024-02-14T06:33:06;90041.13;;;-1.47;73.17
46782;BME280;32541;46.298;11.506;2024-02-14T06:35:32;90049.47;;;-1.45;71.21
46782;BME280;32541;46.298;11.506;2024-02-14T06:37:57;90048.97;;;-1.43;70.14
46782;BME280;32541;46.298;11.506;2024-02-14T06:40:23;90053.66;;;-1.55;69.74
46782;BME280;32541;46.298;11.506;2024-02-14T06:42:48;90051.66;;;-1.54;69.10
46782;BME280;32541;46.298;11.506;2024-02-14T06:45:16;90053.88;;;-1.53;69.40
46782;BME280;32541;46.298;11.506;2024-02-14T06:47:42;90055.34;;;-1.46;69.25
46782;BME280;32541;46.298;11.506;2024-02-14T06:50:07;90057.78;;;-1.48;68.59
46782;BME280;32541;46.298;11.506;2024-02-14T06:52:33;90042.09;;;-1.44;70.22
46782;BME280;32541;46.298;11.506;2024-02-14T06:54:58;90057.81;;;-1.43;69.16
46782;BME280;32541;46.298;11.506;2024-02-14T06:57:25;90053.88;;;-1.42;68.20
46782;BME280;32541;46.298;11.506;2024-02-14T06:59:50;90050.72;;;-1.46;68.04
46782;BME280;32541;46.298;11.506;2024-02-14T07:02:16;90050.41;;;-1.26;71.63
46782;BME280;32541;46.298;11.506;2024-02-14T07:04:41;90060.25;;;-1.34;70.17
46782;BME280;32541;46.298;11.506;2024-02-14T07:07:07;90060.75;;;-1.46;70.00
46782;BME280;32541;46.298;11.506;2024-02-14T07:09:33;90057.06;;;-1.43;69.84
46782;BME280;32541;46.298;11.506;2024-02-14T07:12:01;90045.06;;;-1.37;69.13
46782;BME280;32541;46.298;11.506;2024-02-14T07:14:26;90035.47;;;-1.32;69.43
46782;BME280;32541;46.298;11.506;2024-02-14T07:16:52;90038.44;;;-1.41;68.73
46782;BME280;32541;46.298;11.506;2024-02-14T07:19:17;90036.22;;;-1.37;69.50
46782;BME280;32541;46.298;11.506;2024-02-14T07:21:43;90037.94;;;-1.34;68.16
46782;BME280;32541;46.298;11.506;2024-02-14T07:24:09;90051.63;;;-1.27;69.03
46782;BME280;32541;46.298;11.506;2024-02-14T07:26:34;90055.84;;;-1.37;68.95
46782;BME280;32541;46.298;11.506;2024-02-14T07:29:00;90065.16;;;-1.38;70.31
46782;BME280;32541;46.298;11.506;2024-02-14T07:31:29;90074.47;;;-1.39;69.62
46782;BME280;32541;46.298;11.506;2024-02-14T07:34:00;90090.41;;;-1.35;68.63
46782;BME280;32541;46.298;11.506;2024-02-14T07:36:25;90090.56;;;-0.94;66.21
46782;BME280;32541;46.298;11.506;2024-02-14T07:38:51;90099.00;;;1.01;62.64
46782;BME280;32541;46.298;11.506;2024-02-14T07:41:16;90092.69;;;4.09;55.42
46782;BME280;32541;46.298;11.506;2024-02-14T07:43:41;90092.28;;;6.62;49.25
46782;BME280;32541;46.298;11.506;2024-02-14T07:46:07;90079.09;;;8.65;44.55
46782;BME280;32541;46.298;11.506;2024-02-14T07:48:33;90081.41;;;10.07;40.53
46782;BME280;32541;46.298;11.506;2024-02-14T07:50:59;90081.41;;;12.10;37.06
46782;BME280;32541;46.298;11.506;2024-02-14T07:53:25;90090.50;;;13.06;35.36
46782;BME280;32541;46.298;11.506;2024-02-14T07:55:51;90090.91;;;13.31;33.76
46782;BME280;32541;46.298;11.506;2024-02-14T07:58:17;90079.56;;;13.47;32.62
46782;BME280;32541;46.298;11.506;2024-02-14T08:00:43;90090.56;;;14.58;30.96
46782;BME280;32541;46.298;11.506;2024-02-14T08:03:08;90094.13;;;15.45;30.26
46782;BME280;32541;46.298;11.506;2024-02-14T08:05:34;90095.25;;;15.52;30.26
46782;BME280;32541;46.298;11.506;2024-02-14T08:07:59;90090.16;;;14.52;30.77
46782;BME280;32541;46.298;11.506;2024-02-14T08:10:24;90095.69;;;14.31;30.51
46782;BME280;32541;46.298;11.506;2024-02-14T08:12:50;90093.59;;;14.10;30.74
46782;BME280;32541;46.298;11.506;2024-02-14T08:15:15;90097.78;;;13.80;30.57
46782;BME280;32541;46.298;11.506;2024-02-14T08:17:41;90099.94;;;12.74;31.46
46782;BME280;32541;46.298;11.506;2024-02-14T08:20:06;90093.69;;;12.83;32.09
46782;BME280;32541;46.298;11.506;2024-02-14T08:22:32;90088.91;;;13.72;31.39
46782;BME280;32541;46.298;11.506;2024-02-14T08:24:58;90081.16;;;13.90;31.02
46782;BME280;32541;46.298;11.506;2024-02-14T08:27:24;90089.78;;;13.75;31.02
46782;BME280;32541;46.298;11.506;2024-02-14T08:29:50;90090.13;;;12.16;32.27
46782;BME280;32541;46.298;11.506;2024-02-14T08:32:16;90090.75;;;11.51;33.68
46782;BME280;32541;46.298;11.506;2024-02-14T08:34:41;90094.06;;;11.23;33.48
46782;BME280;32541;46.298;11.506;2024-02-14T08:37:07;90097.22;;;9.58;36.27
46782;BME280;32541;46.298;11.506;2024-02-14T08:39:33;90112.44;;;8.31;39.43
46782;BME280;32541;46.298;11.506;2024-02-14T08:41:59;90117.16;;;6.00;44.71
46782;BME280;32541;46.298;11.506;2024-02-14T08:44:27;90102.88;;;5.17;45.76
46782;BME280;32541;46.298;11.506;2024-02-14T08:46:52;90099.31;;;6.35;44.24
46782;BME280;32541;46.298;11.506;2024-02-14T08:49:18;90106.50;;;7.72;40.77
46782;BME280;32541;46.298;11.506;2024-02-14T08:51:44;90112.88;;;7.67;40.42
46782;BME280;32541;46.298;11.506;2024-02-14T08:54:11;90105.91;;;8.12;39.53
46782;BME280;32541;46.298;11.506;2024-02-14T08:56:37;90108.97;;;8.23;38.58
46782;BME280;32541;46.298;11.506;2024-02-14T08:59:03;90103.75;;;7.57;41.87
46782;BME280;32541;46.298;11.506;2024-02-14T09:01:29;90101.31;;;8.14;39.42
46782;BME280;32541;46.298;11.506;2024-02-14T09:03:55;90089.00;;;8.61;40.12
46782;BME280;32541;46.298;11.506;2024-02-14T09:06:21;90092.81;;;7.42;40.59
46782;BME280;32541;46.298;11.506;2024-02-14T09:08:46;90090.06;;;7.35;42.57
46782;BME280;32541;46.298;11.506;2024-02-14T09:11:12;90084.78;;;7.74;41.21
46782;BME280;32541;46.298;11.506;2024-02-14T09:13:38;90086.78;;;8.59;42.02
46782;BME280;32541;46.298;11.506;2024-02-14T09:16:06;90094.44;;;9.33;39.95
46782;BME280;32541;46.298;11.506;2024-02-14T09:18:31;90084.84;;;9.74;39.84
46782;BME280;32541;46.298;11.506;2024-02-14T09:20:57;90096.00;;;10.18;38.75
46782;BME280;32541;46.298;11.506;2024-02-14T09:23:23;90091.75;;;10.41;39.46
46782;BME280;32541;46.298;11.506;2024-02-14T09:25:49;90092.50;;;9.75;38.09
46782;BME280;32541;46.298;11.506;2024-02-14T09:28:18;90084.94;;;8.69;41.62
46782;BME280;32541;46.298;11.506;2024-02-14T09:30:44;90088.53;;;8.79;40.43
46782;BME280;32541;46.298;11.506;2024-02-14T09:33:09;90095.16;;;7.99;39.69
46782;BME280;32541;46.298;11.506;2024-02-14T09:35:34;90091.69;;;7.91;40.43
46782;BME280;32541;46.298;11.506;2024-02-14T09:38:03;90093.69;;;7.22;41.94
46782;BME280;32541;46.298;11.506;2024-02-14T09:40:28;90083.78;;;8.25;39.46
46782;BME280;32541;46.298;11.506;2024-02-14T09:42:55;90094.97;;;7.97;40.59
46782;BME280;32541;46.298;11.506;2024-02-14T09:45:24;90094.00;;;8.17;39.84
46782;BME280;32541;46.298;11.506;2024-02-14T09:47:51;90098.75;;;8.24;37.96
46782;BME280;32541;46.298;11.506;2024-02-14T09:50:17;90085.13;;;7.63;39.69
46782;BME280;32541;46.298;11.506;2024-02-14T09:52:45;90088.06;;;7.65;39.23
46782;BME280;32541;46.298;11.506;2024-02-14T09:55:14;90083.63;;;8.70;38.03
46782;BME280;32541;46.298;11.506;2024-02-14T09:57:41;90095.50;;;8.10;37.88
46782;BME280;32541;46.298;11.506;2024-02-14T10:00:11;90096.59;;;8.00;37.24
46782;BME280;32541;46.298;11.506;2024-02-14T10:02:40;90081.16;;;8.50;37.16
46782;BME280;32541;46.298;11.506;2024-02-14T10:05:05;90083.09;;;8.64;36.11
46782;BME280;32541;46.298;11.506;2024-02-14T10:07:42;90080.88;;;9.10;35.33
46782;BME280;32541;46.298;11.506;2024-02-14T10:10:08;90081.78;;;8.25;36.14
46782;BME280;32541;46.298;11.506;2024-02-14T10:12:33;90085.50;;;9.00;34.91
46782;BME280;32541;46.298;11.506;2024-02-14T10:14:59;90084.72;;;8.12;34.09
46782;BME280;32541;46.298;11.506;2024-02-14T10:17:26;90081.84;;;7.88;34.20
46782;BME280;32541;46.298;11.506;2024-02-14T10:19:58;90076.19;;;8.56;35.88
46782;BME280;32541;46.298;11.506;2024-02-14T10:22:24;90066.75;;;9.46;33.59
46782;BME280;32541;46.298;11.506;2024-02-14T10:24:51;90064.00;;;9.71;33.49
46782;BME280;32541;46.298;11.506;2024-02-14T10:27:17;90062.16;;;10.32;33.25
46782;BME280;32541;46.298;11.506;2024-02-14T10:29:42;90046.78;;;11.17;32.42
46782;BME280;32541;46.298;11.506;2024-02-14T10:32:09;90039.84;;;11.79;30.16
46782;BME280;32541;46.298;11.506;2024-02-14T10:34:36;90031.41;;;11.04;30.42
46782;BME280;32541;46.298;11.506;2024-02-14T10:37:03;90041.03;;;10.35;30.60
46782;BME280;32541;46.298;11.506;2024-02-14T10:39:32;90032.47;;;10.92;30.57
46782;BME280;32541;46.298;11.506;2024-02-14T10:41:58;90031.91;;;11.56;29.08
46782;BME280;32541;46.298;11.506;2024-02-14T10:44:25;90032.09;;;11.32;29.95
46782;BME280;32541;46.298;11.506;2024-02-14T10:46:52;90027.03;;;11.38;30.16
46782;BME280;32541;46.298;11.506;2024-02-14T10:49:20;90023.66;;;11.56;29.33
46782;BME280;32541;46.298;11.506;2024-02-14T10:51:47;90021.81;;;10.35;30.82
46782;BME280;32541;46.298;11.506;2024-02-14T10:54:14;90025.22;;;8.92;33.54
46782;BME280;32541;46.298;11.506;2024-02-14T10:56:42;90017.00;;;8.60;32.20
46782;BME280;32541;46.298;11.506;2024-02-14T10:59:13;90023.38;;;8.55;33.02
46782;BME280;32541;46.298;11.506;2024-02-14T11:01:41;90023.50;;;9.29;33.12
46782;BME280;32541;46.298;11.506;2024-02-14T11:04:07;90019.47;;;8.73;32.75
46782;BME280;32541;46.298;11.506;2024-02-14T11:06:47;90011.81;;;8.32;34.30
46782;BME280;32541;46.298;11.506;2024-02-14T11:09:13;90009.59;;;9.27;33.39
46782;BME280;32541;46.298;11.506;2024-02-14T11:11:41;89992.16;;;10.33;31.13
46782;BME280;32541;46.298;11.506;2024-02-14T11:14:08;89994.16;;;10.33;30.08
46782;BME280;32541;46.298;11.506;2024-02-14T11:16:33;89993.81;;;10.46;33.37
46782;BME280;32541;46.298;11.506;2024-02-14T11:21:35;89989.38;;;10.50;30.56
46782;BME280;32541;46.298;11.506;2024-02-14T11:24:05;89980.81;;;10.73;32.43
46782;BME280;32541;46.298;11.506;2024-02-14T11:26:52;89992.44;;;11.08;31.32
46782;BME280;32541;46.298;11.506;2024-02-14T11:29:19;89986.97;;;11.54;31.07
46782;BME280;32541;46.298;11.506;2024-02-14T11:31:45;89979.22;;;11.79;30.30
46782;BME280;32541;46.298;11.506;2024-02-14T11:34:14;89986.13;;;11.61;30.01
46782;BME280;32541;46.298;11.506;2024-02-14T11:36:44;89990.72;;;11.49;29.60
46782;BME280;32541;46.298;11.506;2024-02-14T11:39:13;89986.50;;;11.11;29.97
46782;BME280;32541;46.298;11.506;2024-02-14T11:41:39;89990.69;;;11.03;29.59
46782;BME280;32541;46.298;11.506;2024-02-14T11:44:07;89979.06;;;10.68;31.11
46782;BME280;32541;46.298;11.506;2024-02-14T11:46:34;89979.41;;;10.55;31.19
46782;BME280;32541;46.298;11.506;2024-02-14T11:49:01;89981.06;;;10.07;31.57
46782;BME280;32541;46.298;11.506;2024-02-14T11:51:31;89974.41;;;10.10;31.70
46782;BME280;32541;46.298;11.506;2024-02-14T11:53:58;89988.34;;;9.94;31.45
46782;BME280;32541;46.298;11.506;2024-02-14T11:56:35;89983.47;;;9.85;32.83
46782;BME280;32541;46.298;11.506;2024-02-14T11:59:05;89975.88;;;10.11;31.26
46782;BME280;32541;46.298;11.506;2024-02-14T12:01:32;89971.09;;;10.72;30.99
46782;BME280;32541;46.298;11.506;2024-02-14T12:03:58;89964.72;;;11.33;30.33
46782;BME280;32541;46.298;11.506;2024-02-14T12:06:26;89964.03;;;11.05;32.62
46782;BME280;32541;46.298;11.506;2024-02-14T12:08:53;89960.50;;;11.22;30.97
46782;BME280;32541;46.298;11.506;2024-02-14T12:11:18;89962.59;;;10.51;29.98
46782;BME280;32541;46.298;11.506;2024-02-14T12:13:49;89957.78;;;10.95;29.98
46782;BME280;32541;46.298;11.506;2024-02-14T12:16:15;89945.38;;;11.13;29.72
46782;BME280;32541;46.298;11.506;2024-02-14T12:18:41;89946.03;;;11.77;27.76
46782;BME280;32541;46.298;11.506;2024-02-14T12:21:07;89952.00;;;11.47;26.77
46782;BME280;32541;46.298;11.506;2024-02-14T12:23:33;89945.72;;;11.73;28.30
46782;BME280;32541;46.298;11.506;2024-02-14T12:26:01;89954.59;;;11.81;27.38
46782;BME280;32541;46.298;11.506;2024-02-14T12:28:28;89948.66;;;12.04;27.35
46782;BME280;32541;46.298;11.506;2024-02-14T12:30:56;89950.78;;;11.77;27.89
46782;BME280;32541;46.298;11.506;2024-02-14T12:33:22;89947.75;;;10.90;28.69
46782;BME280;32541;46.298;11.506;2024-02-14T12:35:52;89942.25;;;10.90;29.44
46782;BME280;32541;46.298;11.506;2024-02-14T12:38:19;89945.25;;;11.57;28.82
46782;BME280;32541;46.298;11.506;2024-02-14T12:40:46;89942.25;;;12.20;27.87
46782;BME280;32541;46.298;11.506;2024-02-14T12:43:12;89945.31;;;12.34;27.66
46782;BME280;32541;46.298;11.506;2024-02-14T12:45:38;89948.72;;;11.67;28.83
46782;BME280;32541;46.298;11.506;2024-02-14T12:48:05;89950.47;;;11.17;30.19
46782;BME280;32541;46.298;11.506;2024-02-14T12:50:31;89943.47;;;11.43;29.84